Time;durP1;ratioP1;P1;durP2;ratioP2;P2;SDS_P1;SDS_P2;PMS_P1;PMS_P2;Temp;Humidity;BMP_temperature;BMP_pressure;BME280_temperature;BME280_humidity;BME280_pressure;Samples;Min_cycle;Max_cycle;Signal;HPM_P1;HPM_P2
2023/09/26 00:01:02;;;;;;;13.15;7.40;;;;;;;14.62;73.02;98559.78;10428580;28;20049;-71
2023/09/26 00:06:24;;;;;;;10.25;7.75;;;;;;;14.53;73.20;98564.16;10428766;28;20090;-71
2023/09/26 00:11:44;;;;;;;12.98;8.57;;;;;;;14.46;73.70;98557.41;10442217;28;20069;-72
2023/09/26 00:17:05;;;;;;;15.40;8.52;;;;;;;14.39;74.21;98549.91;10455599;28;20045;-71
2023/09/26 00:22:25;;;;;;;13.02;9.30;;;;;;;14.38;73.86;98550.47;10442046;28;20068;-71
2023/09/26 00:27:46;;;;;;;14.35;9.52;;;;;;;14.33;74.38;98555.09;10454780;28;20448;-71
2023/09/26 00:33:08;;;;;;;12.50;9.20;;;;;;;14.34;74.60;98539.72;10412703;28;20128;-71
2023/09/26 00:38:29;;;;;;;11.75;9.13;;;;;;;14.33;74.75;98560.72;10455419;28;20079;-71
2023/09/26 00:43:49;;;;;;;16.85;9.88;;;;;;;14.25;74.67;98560.19;10441430;28;20072;-71
2023/09/26 00:49:11;;;;;;;11.40;9.18;;;;;;;14.21;75.84;98559.94;10453909;28;20116;-71
2023/09/26 00:54:32;;;;;;;16.10;9.52;;;;;;;14.16;75.73;98555.38;10455475;28;20475;-71
2023/09/26 00:59:53;;;;;;;13.57;8.65;;;;;;;14.16;76.05;98566.59;10475925;28;20436;-71
2023/09/26 01:05:13;;;;;;;12.27;8.80;;;;;;;14.11;75.89;98567.69;10427532;28;20512;-71
2023/09/26 01:10:35;;;;;;;11.77;9.20;;;;;;;14.08;76.09;98566.06;10447753;28;20443;-71
2023/09/26 01:15:56;;;;;;;12.15;9.23;;;;;;;14.06;76.58;98555.44;10433653;28;20077;-71
2023/09/26 01:21:17;;;;;;;11.25;8.23;;;;;;;14.03;76.58;98565.78;10458778;28;20060;-71
2023/09/26 01:26:38;;;;;;;13.00;8.35;;;;;;;14.00;76.65;98564.19;10458812;28;20143;-71
2023/09/26 01:31:59;;;;;;;17.95;9.32;;;;;;;14.00;77.39;98571.88;10453666;28;20509;-70
2023/09/26 01:37:20;;;;;;;12.05;8.10;;;;;;;13.98;77.26;98564.03;10475905;28;20056;-71
2023/09/26 01:42:41;;;;;;;11.80;8.73;;;;;;;13.88;77.09;98568.97;10461350;28;20049;-71
2023/09/26 01:48:05;;;;;;;12.38;8.20;;;;;;;13.81;77.05;98567.09;10447359;28;20482;-71
2023/09/26 01:53:26;;;;;;;11.77;8.35;;;;;;;13.72;76.86;98568.63;10461184;28;20052;-71
2023/09/26 01:58:48;;;;;;;13.60;8.63;;;;;;;13.63;78.04;98565.88;10460750;28;20395;-72
2023/09/26 02:04:08;;;;;;;11.90;8.93;;;;;;;13.59;77.63;98559.97;10445058;28;20147;-71
2023/09/26 02:09:29;;;;;;;11.57;8.82;;;;;;;13.51;77.93;98567.81;10432162;28;20037;-71
2023/09/26 02:14:50;;;;;;;12.65;9.27;;;;;;;13.51;77.94;98560.16;10451251;28;20143;-70
2023/09/26 02:20:14;;;;;;;12.82;9.40;;;;;;;13.44;78.02;98563.88;10464836;28;20044;-71
2023/09/26 02:25:36;;;;;;;11.48;8.48;;;;;;;13.41;78.32;98559.44;10466194;28;20547;-71
2023/09/26 02:30:57;;;;;;;11.18;8.63;;;;;;;13.36;78.41;98561.22;10444081;28;20048;-71
2023/09/26 02:36:18;;;;;;;12.68;8.98;;;;;;;13.37;78.56;98573.91;10444400;28;20088;-71
2023/09/26 02:41:39;;;;;;;15.70;9.52;;;;;;;13.31;78.58;98559.47;10452956;28;20128;-71
2023/09/26 02:47:00;;;;;;;14.88;9.02;;;;;;;13.25;78.65;98556.25;10455946;28;20120;-71
2023/09/26 02:52:24;;;;;;;14.88;8.90;;;;;;;13.27;79.12;98544.44;10452369;28;20068;-71
2023/09/26 02:57:48;;;;;;;14.52;9.73;;;;;;;13.30;79.09;98546.03;10456852;28;20049;-71
2023/09/26 03:03:24;;;;;;;13.45;9.50;;;;;;;13.31;79.07;98541.91;10447034;28;20099;-71
2023/09/26 03:08:50;;;;;;;15.95;10.80;;;;;;;13.25;79.09;98555.53;10443054;28;20033;-71
2023/09/26 03:14:15;;;;;;;12.98;8.85;;;;;;;13.21;79.11;98550.34;10494545;28;20041;-71
2023/09/26 03:19:35;;;;;;;13.73;8.75;;;;;;;13.15;79.30;98544.31;10447476;28;20111;-71
2023/09/26 03:24:56;;;;;;;13.30;8.98;;;;;;;13.15;79.68;98542.25;10480082;28;20031;-71
2023/09/26 03:30:17;;;;;;;13.45;8.85;;;;;;;13.16;79.76;98538.09;10452637;28;20119;-71
2023/09/26 03:35:38;;;;;;;14.00;9.73;;;;;;;13.14;80.02;98540.03;10465702;28;20040;-71
2023/09/26 03:40:59;;;;;;;15.23;10.52;;;;;;;13.10;79.93;98528.53;10466787;28;20060;-71
2023/09/26 03:46:20;;;;;;;17.08;10.63;;;;;;;13.04;80.10;98526.03;10454220;28;20125;-71
2023/09/26 03:51:41;;;;;;;13.88;10.75;;;;;;;13.05;80.15;98535.19;10494600;28;20123;-71
2023/09/26 03:57:04;;;;;;;14.18;10.65;;;;;;;13.03;80.22;98530.19;10495693;28;20040;-72
2023/09/26 04:02:24;;;;;;;13.27;9.93;;;;;;;12.99;80.30;98529.88;10466152;28;20045;-71
2023/09/26 04:07:45;;;;;;;17.75;10.60;;;;;;;13.01;80.82;98516.00;10468328;28;20047;-72
2023/09/26 04:13:06;;;;;;;14.10;10.10;;;;;;;13.06;80.91;98522.66;10475824;28;20043;-71
2023/09/26 04:18:27;;;;;;;17.25;10.65;;;;;;;13.08;80.88;98520.72;10482754;28;20066;-72
2023/09/26 04:23:48;;;;;;;16.98;10.00;;;;;;;13.10;81.07;98528.53;10455781;28;20041;-71
2023/09/26 04:29:10;;;;;;;14.93;10.60;;;;;;;13.08;80.97;98522.78;10458438;28;20052;-71
2023/09/26 04:34:32;;;;;;;15.27;12.07;;;;;;;13.09;81.09;98521.44;10483156;28;20075;-72
2023/09/26 04:39:54;;;;;;;16.38;10.95;;;;;;;13.10;81.40;98522.91;10482876;28;20494;-71
2023/09/26 04:46:20;;;;;;;16.38;11.18;;;;;;;13.11;81.71;98515.97;10477749;28;20037;-71
2023/09/26 04:51:41;;;;;;;16.50;11.50;;;;;;;13.11;81.71;98524.38;10496285;28;20045;-71
2023/09/26 04:57:02;;;;;;;17.02;11.60;;;;;;;13.14;81.50;98517.59;10482575;28;20048;-71
2023/09/26 05:02:22;;;;;;;16.92;11.55;;;;;;;13.20;81.90;98517.31;10454327;28;20051;-71
2023/09/26 05:07:44;;;;;;;16.80;11.00;;;;;;;13.28;81.34;98507.41;10494864;28;20040;-72
2023/09/26 05:13:06;;;;;;;18.48;11.32;;;;;;;13.38;81.54;98510.88;10482727;28;20053;-71
2023/09/26 05:18:27;;;;;;;16.38;11.57;;;;;;;13.64;81.55;98525.25;10494347;28;20068;-71
2023/09/26 05:23:48;;;;;;;16.55;11.98;;;;;;;14.09;81.48;98520.56;10476247;28;20783;-71
2023/09/26 05:29:09;;;;;;;12.95;10.18;;;;;;;15.05;80.95;98527.41;10451225;28;20060;-70
2023/09/26 05:34:30;;;;;;;16.45;11.18;;;;;;;16.94;79.00;98526.53;10439184;28;20064;-71
2023/09/26 05:40:01;;;;;;;14.43;10.68;;;;;;;19.08;75.85;98526.09;10497485;28;20450;-71
2023/09/26 05:45:21;;;;;;;14.15;10.40;;;;;;;20.98;72.56;98537.78;10497813;28;20041;-70
2023/09/26 05:50:42;;;;;;;12.98;9.75;;;;;;;22.55;68.61;98536.38;10473900;28;20040;-69
2023/09/26 05:56:03;;;;;;;12.93;10.20;;;;;;;23.43;62.96;98534.13;10474043;28;20072;-69
2023/09/26 06:01:24;;;;;;;12.73;9.07;;;;;;;26.00;58.32;98539.69;10459726;28;20072;-70
2023/09/26 06:06:45;;;;;;;11.18;9.05;;;;;;;28.37;53.80;98533.09;10473480;28;20072;-69
2023/09/26 06:12:06;;;;;;;11.05;9.07;;;;;;;30.25;47.16;98546.44;10473787;28;20040;-72
2023/09/26 06:17:27;;;;;;;10.88;8.15;;;;;;;32.41;42.51;98530.06;10472944;28;20051;-71
2023/09/26 06:22:48;;;;;;;9.55;8.27;;;;;;;34.93;37.62;98537.91;10472681;28;20064;-72
2023/09/26 06:28:09;;;;;;;10.33;7.53;;;;;;;37.20;31.71;98533.66;10500802;28;20539;-72
2023/09/26 06:33:30;;;;;;;9.20;7.70;;;;;;;32.65;27.68;98529.16;10480564;28;20302;-71
2023/09/26 06:38:51;;;;;;;;;;;;;;;26.73;33.07;98530.28;10520117;28;20760;-70
2023/09/26 06:44:11;;;;;;;11.63;8.73;;;;;;;23.64;37.02;98529.81;10511016;28;19927;-69
2023/09/26 06:49:33;;;;;;;12.80;8.73;;;;;;;22.13;39.51;98537.81;10507947;28;20064;-68
2023/09/26 06:54:54;;;;;;;15.23;8.30;;;;;;;21.63;41.49;98535.31;10454001;28;20095;-69
2023/09/26 07:00:19;;;;;;;16.13;8.93;;;;;;;21.70;42.58;98530.56;10498004;28;20064;-70
2023/09/26 07:05:40;;;;;;;15.23;10.55;;;;;;;21.15;44.30;98528.53;10502953;28;20178;-71
2023/09/26 07:11:03;;;;;;;18.70;9.93;;;;;;;21.66;46.02;98521.91;10517846;28;20308;-70
2023/09/26 07:16:24;;;;;;;17.35;10.85;;;;;;;24.45;43.57;98519.13;10503714;28;20045;-70
2023/09/26 07:21:45;;;;;;;15.70;9.23;;;;;;;29.21;37.52;98525.84;10519022;28;20070;-70
2023/09/26 07:27:06;;;;;;;14.13;9.65;;;;;;;26.20;37.86;98525.75;10466094;28;20120;-70
2023/09/26 07:32:27;;;;;;;15.38;10.32;;;;;;;23.83;41.63;98527.44;10442935;28;20454;-70
2023/09/26 07:37:48;;;;;;;15.52;10.15;;;;;;;23.45;43.32;98519.25;10442964;28;20129;-71
2023/09/26 07:43:08;;;;;;;19.83;12.65;;;;;;;24.72;42.90;98509.81;10442134;28;20077;-72
2023/09/26 07:48:30;;;;;;;16.33;10.48;;;;;;;27.06;42.36;98516.47;10440049;28;20056;-71
2023/09/26 07:53:50;;;;;;;19.00;10.48;;;;;;;32.65;35.48;98516.91;10497863;28;20064;-73
2023/09/26 07:59:11;;;;;;;12.05;9.23;;;;;;;39.70;24.60;98528.63;10483183;28;20538;-74
2023/09/26 08:04:32;;;;;;;14.95;9.13;;;;;;;43.84;20.03;98521.41;10468659;28;20068;-74
2023/09/26 08:09:55;;;;;;;12.07;8.43;;;;;;;44.34;15.87;98525.97;10482771;28;20045;-73
2023/09/26 08:15:15;;;;;;;12.10;7.45;;;;;;;45.80;16.27;98522.38;10469524;28;20040;-76
2023/09/26 08:20:36;;;;;;;11.52;7.75;;;;;;;46.04;14.95;98526.72;10497452;28;20120;-76
2023/09/26 08:26:00;;;;;;;9.05;7.00;;;;;;;48.17;13.68;98519.50;10497605;28;20068;-76
2023/09/26 08:31:21;;;;;;;12.02;6.82;;;;;;;48.00;12.72;98519.31;10482719;28;20047;-78
2023/09/26 08:36:41;;;;;;;10.63;7.35;;;;;;;47.06;12.96;98526.56;10468419;28;20203;-73
2023/09/26 08:42:03;;;;;;;7.05;5.95;;;;;;;48.86;12.22;98523.22;10501814;28;20036;-79
2023/09/26 08:47:24;;;;;;;7.88;6.53;;;;;;;48.66;11.79;98522.53;10446652;28;20490;-79
2023/09/26 08:52:45;;;;;;;7.10;5.38;;;;;;;46.65;13.01;98516.13;10485304;28;20181;-77
2023/09/26 08:58:06;;;;;;;8.07;4.95;;;;;;;47.56;11.89;98512.06;10429536;28;20052;-78
2023/09/26 09:03:28;;;;;;;8.30;5.25;;;;;;;49.35;10.72;98507.59;10426365;28;20434;-78
2023/09/26 09:08:49;;;;;;;7.40;4.57;;;;;;;50.01;10.72;98503.09;10426389;28;20437;-78
2023/09/26 09:14:10;;;;;;;7.55;4.57;;;;;;;50.79;10.86;98495.09;10426237;28;20512;-77
2023/09/26 09:19:47;;;;;;;6.60;4.25;;;;;;;51.20;10.08;98495.25;10431646;28;20506;-78
2023/09/26 09:25:08;;;;;;;5.90;4.70;;;;;;;50.54;10.12;98490.50;10433596;28;20510;-76
2023/09/26 09:30:29;;;;;;;8.15;4.97;;;;;;;47.34;10.71;98481.84;10433504;28;20507;-76
2023/09/26 09:35:50;;;;;;;8.45;5.38;;;;;;;46.72;12.57;98476.50;10461039;28;20069;-73
2023/09/26 09:41:11;;;;;;;7.93;4.22;;;;;;;47.95;11.78;98464.94;10433207;28;20049;-75
2023/09/26 09:46:38;;;;;;;8.70;4.85;;;;;;;49.38;10.46;98461.41;10429248;28;20443;-81
2023/09/26 09:52:02;;;;;;;6.50;4.45;;;;;;;49.49;10.55;98453.09;10444469;28;20133;-73
2023/09/26 09:57:26;;;;;;;6.60;4.20;;;;;;;49.05;10.82;98451.41;10459624;28;20174;-72
2023/09/26 10:02:47;;;;;;;7.20;4.10;;;;;;;49.47;10.82;98449.59;10446502;28;20495;-72
2023/09/26 10:08:09;;;;;;;6.40;4.18;;;;;;;49.58;10.74;98441.97;10432382;28;20045;-72
2023/09/26 10:13:30;;;;;;;6.50;3.80;;;;;;;50.19;9.92;98441.50;10460055;28;20442;-72
2023/09/26 10:18:59;;;;;;;6.80;4.00;;;;;;;50.10;10.38;98439.25;10460638;28;20045;-73
2023/09/26 10:24:25;;;;;;;7.33;4.80;;;;;;;48.32;11.16;98430.38;10446017;28;20053;-72
2023/09/26 10:29:47;;;;;;;7.00;4.28;;;;;;;48.43;11.60;98436.91;10459726;28;20442;-73
2023/09/26 10:35:14;;;;;;;5.65;4.38;;;;;;;50.02;10.40;98430.28;10459473;28;20116;-72
2023/09/26 10:40:39;;;;;;;5.20;3.95;;;;;;;48.14;11.54;98414.69;10459270;28;20483;-72
2023/09/26 10:46:00;;;;;;;6.38;4.70;;;;;;;47.77;11.64;98410.75;10444504;28;20113;-74
2023/09/26 10:51:22;;;;;;;6.60;4.07;;;;;;;48.43;11.27;98416.19;10444577;28;20065;-74
2023/09/26 10:56:47;;;;;;;7.30;4.07;;;;;;;48.92;11.17;98422.00;10443915;28;20068;-75
2023/09/26 11:02:09;;;;;;;7.10;4.10;;;;;;;48.71;11.30;98405.13;10430636;28;20048;-76
2023/09/26 11:07:30;;;;;;;10.20;3.50;;;;;;;48.44;11.48;98406.44;10432026;28;20124;-76
2023/09/26 11:12:51;;;;;;;6.47;3.53;;;;;;;47.33;12.18;98391.78;10474073;28;20070;-83
2023/09/26 11:18:12;;;;;;;6.57;4.30;;;;;;;47.81;12.02;98393.44;10498488;28;20044;-80
2023/09/26 11:23:35;;;;;;;6.07;4.55;;;;;;;47.48;11.91;98395.09;10498344;28;20059;-81
2023/09/26 11:28:58;;;;;;;6.47;4.03;;;;;;;44.24;14.15;98383.81;10512005;28;20040;-76
2023/09/26 11:34:19;;;;;;;8.52;4.65;;;;;;;42.02;15.82;98386.22;10511928;28;20040;-79
2023/09/26 11:39:40;;;;;;;9.57;5.93;;;;;;;41.15;16.28;98380.06;10510655;28;20044;-73
2023/09/26 11:45:03;;;;;;;11.40;6.03;;;;;;;38.52;17.99;98378.16;10497402;28;20044;-77
2023/09/26 11:50:23;;;;;;;9.10;5.72;;;;;;;35.63;22.04;98362.44;10511673;28;20075;-75
2023/09/26 11:55:50;;;;;;;8.02;5.57;;;;;;;33.13;25.55;98364.63;10525400;28;20048;-72
2023/09/26 12:01:11;;;;;;;8.52;5.35;;;;;;;31.79;28.51;98363.78;10512184;28;20090;-73
2023/09/26 12:06:33;;;;;;;14.98;6.30;;;;;;;30.44;31.03;98352.78;10510389;28;20066;-74
2023/09/26 12:11:55;;;;;;;11.10;6.50;;;;;;;30.49;31.48;98348.44;10524273;28;20040;-73
2023/09/26 12:17:16;;;;;;;11.48;6.18;;;;;;;30.56;31.56;98345.56;10510072;28;20478;-72
2023/09/26 12:22:37;;;;;;;;;;;;;;;30.45;31.64;98345.59;10510629;28;20039;-72
2023/09/26 12:27:58;;;;;;;10.98;6.88;;;;;;;30.12;32.35;98338.44;10509943;28;19920;-72
2023/09/26 12:33:19;;;;;;;11.80;5.73;;;;;;;30.04;33.11;98333.38;10496114;28;20067;-71
2023/09/26 12:38:41;;;;;;;11.30;6.35;;;;;;;29.65;34.07;98347.06;10523469;28;20044;-72
2023/09/26 12:44:03;;;;;;;10.02;6.30;;;;;;;28.52;36.02;98325.06;10509832;28;20040;-72
2023/09/26 12:49:24;;;;;;;8.03;5.73;;;;;;;28.56;36.48;98327.94;10511324;28;20133;-71
2023/09/26 12:54:48;;;;;;;11.85;6.38;;;;;;;27.90;37.61;98328.94;10531776;28;20282;-71
2023/09/26 13:00:10;;;;;;;10.35;6.40;;;;;;;27.49;38.67;98322.09;10537319;28;20036;-71
2023/09/26 13:05:32;;;;;;;10.52;6.40;;;;;;;27.16;39.82;98326.78;10518371;28;20505;-71
2023/09/26 13:10:53;;;;;;;11.45;5.72;;;;;;;27.32;39.51;98316.22;10503635;28;20046;-71
2023/09/26 13:16:14;;;;;;;9.67;6.37;;;;;;;27.16;40.77;98307.44;10503286;28;20509;-71
2023/09/26 13:21:35;;;;;;;8.68;6.40;;;;;;;27.27;40.70;98302.53;10503220;28;20044;-71
2023/09/26 13:26:56;;;;;;;11.90;6.28;;;;;;;27.28;40.45;98292.50;10528644;28;20044;-79
2023/09/26 13:32:17;;;;;;;7.85;6.28;;;;;;;27.31;40.76;98288.22;10460761;28;20501;-80
2023/09/26 13:37:39;;;;;;;12.18;6.50;;;;;;;27.45;40.49;98287.66;10465934;28;20557;-79
2023/09/26 13:43:02;;;;;;;12.07;7.10;;;;;;;27.20;41.19;98292.44;10471506;28;20044;-79
2023/09/26 13:48:23;;;;;;;11.98;7.03;;;;;;;27.01;41.13;98280.03;10470017;28;20040;-78
2023/09/26 13:53:44;;;;;;;12.65;6.40;;;;;;;26.85;41.78;98277.72;10458863;28;20748;-74
2023/09/26 13:59:05;;;;;;;13.35;6.25;;;;;;;26.74;42.42;98273.28;10471806;28;20165;-72
2023/09/26 14:04:26;;;;;;;11.25;5.75;;;;;;;26.74;42.26;98273.28;10456189;28;20053;-72
2023/09/26 14:09:47;;;;;;;11.20;6.32;;;;;;;26.72;42.79;98271.09;10453010;28;20041;-72
2023/09/26 14:15:09;;;;;;;8.75;5.63;;;;;;;26.59;43.13;98258.06;10435690;28;20068;-71
2023/09/26 14:20:32;;;;;;;11.55;5.68;;;;;;;26.58;42.84;98265.22;10460446;28;20045;-76
2023/09/26 14:25:54;;;;;;;12.88;5.28;;;;;;;26.61;43.35;98254.50;10445192;28;20048;-76
2023/09/26 14:31:19;;;;;;;9.52;5.47;;;;;;;26.59;43.19;98251.63;10431160;28;20076;-79
2023/09/26 14:36:41;;;;;;;9.52;6.22;;;;;;;26.41;43.58;98247.13;10431547;28;20052;-82
2023/09/26 14:42:01;;;;;;;9.93;4.93;;;;;;;26.29;43.74;98244.09;10430726;28;20045;-79
2023/09/26 14:47:23;;;;;;;8.13;4.90;;;;;;;26.27;43.84;98241.19;10421653;28;20045;-76
2023/09/26 14:52:44;;;;;;;10.23;5.32;;;;;;;26.20;44.40;98234.66;10479285;28;20044;-75
2023/09/26 14:58:05;;;;;;;12.77;5.05;;;;;;;26.03;44.72;98229.41;10485352;28;20379;-78
2023/09/26 15:03:26;;;;;;;5.85;4.38;;;;;;;26.02;44.58;98230.81;10474331;28;20062;-79
2023/09/26 15:08:48;;;;;;;11.27;4.38;;;;;;;26.00;45.26;98231.53;10415694;28;20529;-80
2023/09/26 15:14:09;;;;;;;7.97;4.32;;;;;;;25.94;44.88;98229.28;10428363;28;20048;-76
2023/09/26 15:19:30;;;;;;;8.95;4.88;;;;;;;25.78;45.45;98220.50;10442887;28;20112;-80
2023/09/26 15:24:51;;;;;;;7.28;4.28;;;;;;;25.71;45.42;98218.22;10428930;28;20045;-86
2023/09/26 15:30:12;;;;;;;7.50;4.10;;;;;;;25.57;45.80;98204.41;10414082;28;20041;-77
2023/09/26 15:35:40;;;;;;;8.10;4.32;;;;;;;25.46;46.15;98197.09;10442956;28;20052;-73
2023/09/26 15:41:19;;;;;;;8.70;3.95;;;;;;;25.29;47.18;98210.41;10428746;28;20041;-71
2023/09/26 15:46:40;;;;;;;8.27;3.97;;;;;;;25.05;47.29;98204.97;10428812;28;20033;-70
2023/09/26 15:52:01;;;;;;;7.53;3.85;;;;;;;24.92;47.75;98209.03;10409209;28;20052;-71
2023/09/26 15:57:22;;;;;;;7.88;3.95;;;;;;;24.83;47.70;98211.72;10449317;28;20055;-75
2023/09/26 16:02:43;;;;;;;9.43;4.25;;;;;;;24.66;48.15;98212.81;10459651;28;20083;-71
2023/09/26 16:08:06;;;;;;;7.68;3.67;;;;;;;24.47;48.55;98208.88;10517322;28;20045;-73
2023/09/26 16:13:32;;;;;;;9.98;4.57;;;;;;;24.27;49.24;98214.16;10456925;28;20525;-73
2023/09/26 16:18:57;;;;;;;8.63;4.22;;;;;;;24.04;49.72;98210.09;10469381;28;20094;-75
2023/09/26 16:24:18;;;;;;;6.85;4.20;;;;;;;23.88;50.09;98210.47;10468800;28;20052;-75
2023/09/26 16:29:40;;;;;;;9.18;4.47;;;;;;;23.64;50.52;98216.34;10507117;28;20415;-71
2023/09/26 16:35:01;;;;;;;7.68;4.20;;;;;;;23.38;51.00;98221.38;10524506;28;20449;-70
2023/09/26 16:40:22;;;;;;;9.02;4.10;;;;;;;23.09;51.61;98214.25;10509834;28;20039;-84
2023/09/26 16:45:43;;;;;;;8.15;4.32;;;;;;;22.88;52.47;98220.81;10465827;28;20036;-74
2023/09/26 16:51:04;;;;;;;8.02;4.47;;;;;;;22.64;53.16;98223.69;10467874;28;20049;-74
2023/09/26 16:56:25;;;;;;;14.48;4.90;;;;;;;22.40;53.34;98226.59;10467813;28;20094;-72
2023/09/26 17:01:46;;;;;;;8.13;4.22;;;;;;;22.15;53.86;98217.34;10467303;28;20480;-83
2023/09/26 17:07:07;;;;;;;10.75;4.72;;;;;;;21.93;54.76;98225.19;10440098;28;20065;-81
2023/09/26 17:12:28;;;;;;;13.13;4.75;;;;;;;21.73;55.17;98227.41;10465932;28;20054;-75
2023/09/26 17:17:49;;;;;;;8.32;4.65;;;;;;;21.60;55.73;98232.69;10446198;28;20048;-76
2023/09/26 17:23:10;;;;;;;9.07;4.65;;;;;;;21.48;56.20;98231.56;10476782;28;20060;-82
2023/09/26 17:28:31;;;;;;;11.30;5.63;;;;;;;21.39;56.95;98236.25;10468488;28;20079;-82
2023/09/26 17:33:52;;;;;;;11.80;5.70;;;;;;;21.32;57.20;98238.16;10494549;28;20524;-84
2023/09/26 17:39:13;;;;;;;9.60;4.85;;;;;;;21.24;57.53;98243.56;10451414;28;20044;-79
2023/09/26 17:44:34;;;;;;;8.57;5.57;;;;;;;21.06;58.11;98240.09;10439129;28;20487;-77
2023/09/26 17:49:55;;;;;;;10.88;6.32;;;;;;;20.93;58.10;98246.72;10446370;28;20521;-71
2023/09/26 17:55:16;;;;;;;9.00;5.18;;;;;;;20.76;58.74;98243.34;10446454;28;20065;-74
2023/09/26 18:00:38;;;;;;;12.05;6.22;;;;;;;20.67;59.38;98247.28;10479362;28;20044;-76
2023/09/26 18:05:59;;;;;;;12.55;5.63;;;;;;;20.54;60.30;98246.09;10473198;28;20565;-79
2023/09/26 18:11:20;;;;;;;9.60;5.53;;;;;;;20.49;60.24;98243.78;10459395;28;20436;-71
2023/09/26 18:16:41;;;;;;;8.48;4.65;;;;;;;20.44;60.40;98253.50;10472807;28;20547;-69
2023/09/26 18:22:02;;;;;;;12.50;5.53;;;;;;;20.29;61.10;98247.28;10473166;28;20505;-70
2023/09/26 18:27:23;;;;;;;13.40;5.10;;;;;;;20.22;61.32;98251.28;10485796;28;20494;-77
2023/09/26 18:32:44;;;;;;;11.00;4.70;;;;;;;20.11;61.67;98257.94;10455411;28;20064;-80
2023/09/26 18:38:05;;;;;;;11.30;5.28;;;;;;;20.09;62.40;98257.88;10469225;28;20041;-72
2023/09/26 18:43:27;;;;;;;9.35;4.95;;;;;;;19.95;62.15;98262.97;10468508;28;20066;-75
2023/09/26 18:48:48;;;;;;;10.68;5.20;;;;;;;19.90;62.79;98267.03;10471779;28;20184;-70
2023/09/26 18:54:09;;;;;;;10.93;5.20;;;;;;;19.85;63.20;98265.41;10471435;28;20506;-72
2023/09/26 18:59:35;;;;;;;9.50;5.35;;;;;;;19.98;63.35;98273.03;10471624;28;20620;-73
2023/09/26 19:04:57;;;;;;;7.85;4.65;;;;;;;20.16;63.06;98278.66;10473759;28;20531;-73
2023/09/26 19:10:18;;;;;;;11.57;4.75;;;;;;;20.34;63.48;98279.34;10486359;28;20064;-72
2023/09/26 19:15:39;;;;;;;12.15;5.05;;;;;;;20.49;63.13;98286.31;10499404;28;20052;-75
2023/09/26 19:21:00;;;;;;;10.18;4.68;;;;;;;20.55;63.26;98292.91;10470954;28;20063;-72
2023/09/26 19:26:21;;;;;;;10.25;5.60;;;;;;;20.54;63.26;98290.72;10464166;28;20094;-85
2023/09/26 19:31:42;;;;;;;10.77;5.72;;;;;;;20.49;62.88;98280.63;10464637;28;20072;-85
2023/09/26 19:37:03;;;;;;;8.82;4.97;;;;;;;20.45;63.15;98291.81;10463904;28;20102;-83
2023/09/26 19:42:24;;;;;;;8.32;4.57;;;;;;;20.39;62.87;98291.56;10454028;28;20437;-85
2023/09/26 19:47:47;;;;;;;13.60;4.88;;;;;;;20.25;62.92;98295.31;10448694;28;20040;-82
2023/09/26 19:53:10;;;;;;;;;;;;;;;20.16;63.65;98304.16;10471150;28;20178;-85
2023/09/26 19:58:38;;;;;;;7.32;4.80;;;;;;;20.10;62.83;98312.44;10478070;28;20263;-83
2023/09/26 20:04:00;;;;;;;11.35;4.90;;;;;;;20.09;63.30;98306.03;10466406;28;20391;-84
2023/09/26 20:09:26;;;;;;;12.93;4.65;;;;;;;20.06;63.04;98300.91;10441960;28;20048;-85
2023/09/26 20:14:57;;;;;;;8.90;4.47;;;;;;;20.00;63.80;98301.44;10468277;28;20037;-85
2023/09/26 20:20:18;;;;;;;7.82;4.95;;;;;;;19.94;63.28;98301.19;10468568;28;20068;-85
2023/09/26 20:25:43;;;;;;;10.98;4.80;;;;;;;19.90;63.20;98303.88;10468310;28;20059;-82
2023/09/26 20:31:22;;;;;;;10.48;4.43;;;;;;;19.83;63.61;98308.56;10457357;28;20476;-81
2023/09/26 20:36:48;;;;;;;8.93;5.07;;;;;;;19.76;64.09;98308.94;10466795;28;20520;-85
2023/09/26 20:42:11;;;;;;;7.60;4.65;;;;;;;19.69;63.87;98311.56;10451873;28;20040;-84
2023/09/26 20:47:32;;;;;;;17.05;5.00;;;;;;;19.64;63.92;98304.25;10454579;28;20486;-84
2023/09/26 20:52:53;;;;;;;8.82;4.10;;;;;;;19.60;64.37;98306.19;10467843;28;20071;-85
2023/09/26 20:58:13;;;;;;;8.25;4.50;;;;;;;19.61;63.99;98313.31;10467835;28;20060;-86
2023/09/26 21:03:35;;;;;;;7.72;4.05;;;;;;;19.60;63.82;98304.09;10467898;28;20465;-85
2023/09/26 21:08:56;;;;;;;11.63;4.22;;;;;;;19.61;63.75;98304.81;10454072;28;20044;-85
2023/09/26 21:14:17;;;;;;;11.38;4.25;;;;;;;19.66;63.77;98318.47;10499530;28;20047;-85
2023/09/26 21:19:38;;;;;;;10.52;4.07;;;;;;;19.66;63.76;98314.94;10504102;28;20075;-83
2023/09/26 21:24:59;;;;;;;16.20;4.38;;;;;;;19.65;63.93;98319.13;10456111;28;20073;-84
2023/09/26 21:30:21;;;;;;;8.38;3.90;;;;;;;19.63;63.91;98314.13;10525596;28;20390;-83
2023/09/26 21:35:42;;;;;;;10.55;4.82;;;;;;;19.58;63.65;98301.16;10516894;28;20044;-85
2023/09/26 21:41:03;;;;;;;12.80;4.35;;;;;;;19.54;63.55;98308.75;10516863;28;20482;-85
2023/09/26 21:46:24;;;;;;;7.22;4.05;;;;;;;19.51;63.83;98313.59;10502697;28;20060;-85
2023/09/26 21:51:45;;;;;;;7.50;4.10;;;;;;;19.45;63.86;98316.16;10488368;28;20060;-84
2023/09/26 21:57:06;;;;;;;9.93;3.97;;;;;;;19.38;64.10;98314.44;10501433;28;20040;-84
2023/09/26 22:02:27;;;;;;;6.22;4.13;;;;;;;19.35;63.94;98302.31;10508776;28;20371;-84
2023/09/26 22:07:48;;;;;;;8.75;3.75;;;;;;;19.35;64.03;98312.91;10475460;28;20477;-84
2023/09/26 22:13:10;;;;;;;9.60;3.97;;;;;;;19.33;64.22;98307.19;10515371;28;20060;-85
2023/09/26 22:18:30;;;;;;;12.43;4.00;;;;;;;19.25;64.19;98318.88;10515400;28;20060;-85
2023/09/26 22:23:52;;;;;;;10.30;4.10;;;;;;;19.19;64.13;98312.22;10476042;28;20041;-85
2023/09/26 22:29:13;;;;;;;9.07;4.32;;;;;;;19.14;64.22;98312.06;10459296;28;20036;-84
2023/09/26 22:34:34;;;;;;;10.90;3.90;;;;;;;19.07;63.93;98313.16;10458695;28;20431;-83
2023/09/26 22:39:54;;;;;;;9.35;3.80;;;;;;;19.02;64.55;98317.19;10472927;28;20072;-84
2023/09/26 22:45:15;;;;;;;13.60;4.40;;;;;;;18.91;64.66;98323.75;10472010;28;20120;-83
2023/09/26 22:50:36;;;;;;;9.18;4.20;;;;;;;18.70;65.00;98335.53;10458126;28;20060;-84
2023/09/26 22:55:57;;;;;;;6.85;3.97;;;;;;;18.39;65.28;98322.84;10471897;28;20064;-84
2023/09/26 23:01:17;;;;;;;10.52;4.32;;;;;;;18.12;65.71;98335.00;10457688;28;20045;-84
2023/09/26 23:06:38;;;;;;;6.53;3.92;;;;;;;17.98;66.14;98332.25;10485209;28;20064;-84
2023/09/26 23:11:59;;;;;;;6.55;4.13;;;;;;;17.86;66.62;98339.41;10485502;28;20367;-83
2023/09/26 23:17:21;;;;;;;7.97;4.10;;;;;;;17.72;66.70;98342.25;10457190;28;20068;-85
2023/09/26 23:22:41;;;;;;;7.22;3.90;;;;;;;17.57;67.09;98340.81;10484590;28;20047;-84
2023/09/26 23:28:05;;;;;;;9.05;4.38;;;;;;;17.44;67.56;98341.53;10468680;28;20072;-84
2023/09/26 23:33:26;;;;;;;;;;;;;;;17.34;68.88;98344.59;10511410;28;20483;-84
2023/09/26 23:38:47;;;;;;;11.95;4.88;;;;;;;17.26;68.56;98334.97;10525763;28;19998;-84
2023/09/26 23:44:13;;;;;;;7.50;4.78;;;;;;;17.18;68.70;98335.31;10492788;28;20063;-73
2023/09/26 23:49:35;;;;;;;8.68;5.00;;;;;;;17.13;69.17;98337.19;10481701;28;20048;-73
2023/09/26 23:54:56;;;;;;;7.57;4.78;;;;;;;17.09;69.10;98333.44;10465781;28;20111;-73
